sensor_id;sensor_type;location;lat;lon;timestamp;temperature;humidity
11538;DHT22;50159;49.426;11.182;2023-06-10T00:00:29;14.00;99.90
11538;DHT22;50159;49.426;11.182;2023-06-10T00:02:58;14.00;99.90
11538;DHT22;50159;49.426;11.182;2023-06-10T00:05:26;14.00;99.90
11538;DHT22;50159;49.426;11.182;2023-06-10T00:07:56;13.90;99.90
11538;DHT22;50159;49.426;11.182;2023-06-10T00:10:24;13.90;99.90
11538;DHT22;50159;49.426;11.182;2023-06-10T00:12:51;13.80;99.90
11538;DHT22;50159;49.426;11.182;2023-06-10T00:15:18;13.70;99.90
11538;DHT22;50159;49.426;11.182;2023-06-10T00:17:45;13.60;99.90
11538;DHT22;50159;49.426;11.182;2023-06-10T00:20:12;13.60;99.90
11538;DHT22;50159;49.426;11.182;2023-06-10T00:22:39;13.60;99.90
11538;DHT22;50159;49.426;11.182;2023-06-10T00:25:09;13.60;99.90
11538;DHT22;50159;49.426;11.182;2023-06-10T00:27:37;13.50;99.90
11538;DHT22;50159;49.426;11.182;2023-06-10T00:30:06;13.50;99.90
11538;DHT22;50159;49.426;11.182;2023-06-10T00:32:34;13.50;99.90
11538;DHT22;50159;49.426;11.182;2023-06-10T00:35:05;13.40;99.90
11538;DHT22;50159;49.426;11.182;2023-06-10T00:37:33;13.40;99.90
11538;DHT22;50159;49.426;11.182;2023-06-10T00:40:04;13.30;99.90
11538;DHT22;50159;49.426;11.182;2023-06-10T00:42:31;13.30;99.90
11538;DHT22;50159;49.426;11.182;2023-06-10T00:44:58;13.30;99.90
11538;DHT22;50159;49.426;11.182;2023-06-10T00:47:25;13.30;99.90
11538;DHT22;50159;49.426;11.182;2023-06-10T00:49:53;13.20;99.90
11538;DHT22;50159;49.426;11.182;2023-06-10T00:52:22;13.20;99.90
11538;DHT22;50159;49.426;11.182;2023-06-10T00:54:53;13.20;99.90
11538;DHT22;50159;49.426;11.182;2023-06-10T00:57:21;13.10;99.90
11538;DHT22;50159;49.426;11.182;2023-06-10T00:59:48;13.10;99.90
11538;DHT22;50159;49.426;11.182;2023-06-10T01:02:16;13.00;99.90
11538;DHT22;50159;49.426;11.182;2023-06-10T01:04:43;13.00;99.90
11538;DHT22;50159;49.426;11.182;2023-06-10T01:12:37;12.90;99.90
11538;DHT22;50159;49.426;11.182;2023-06-10T01:15:08;12.90;99.90
11538;DHT22;50159;49.426;11.182;2023-06-10T01:17:58;12.90;99.90
11538;DHT22;50159;49.426;11.182;2023-06-10T01:20:29;12.90;99.90
11538;DHT22;50159;49.426;11.182;2023-06-10T01:23:00;12.90;99.90
11538;DHT22;50159;49.426;11.182;2023-06-10T01:25:28;12.90;99.90
11538;DHT22;50159;49.426;11.182;2023-06-10T01:28:04;12.80;99.90
11538;DHT22;50159;49.426;11.182;2023-06-10T01:30:43;12.80;99.90
11538;DHT22;50159;49.426;11.182;2023-06-10T01:33:12;12.80;99.90
11538;DHT22;50159;49.426;11.182;2023-06-10T01:35:43;12.80;99.90
11538;DHT22;50159;49.426;11.182;2023-06-10T01:38:12;12.80;99.90
11538;DHT22;50159;49.426;11.182;2023-06-10T01:40:41;12.80;99.90
11538;DHT22;50159;49.426;11.182;2023-06-10T01:43:09;12.80;99.90
11538;DHT22;50159;49.426;11.182;2023-06-10T01:45:35;12.70;99.90
11538;DHT22;50159;49.426;11.182;2023-06-10T01:48:02;12.70;99.90
11538;DHT22;50159;49.426;11.182;2023-06-10T01:50:29;12.70;99.90
11538;DHT22;50159;49.426;11.182;2023-06-10T01:52:57;12.70;99.90
11538;DHT22;50159;49.426;11.182;2023-06-10T01:55:24;12.70;99.90
11538;DHT22;50159;49.426;11.182;2023-06-10T01:57:51;12.60;99.90
11538;DHT22;50159;49.426;11.182;2023-06-10T02:00:18;12.60;99.90
11538;DHT22;50159;49.426;11.182;2023-06-10T02:02:45;12.60;99.90
11538;DHT22;50159;49.426;11.182;2023-06-10T02:05:12;12.50;99.90
11538;DHT22;50159;49.426;11.182;2023-06-10T02:07:39;12.50;99.90
11538;DHT22;50159;49.426;11.182;2023-06-10T02:10:06;12.50;99.90
11538;DHT22;50159;49.426;11.182;2023-06-10T02:12:34;12.40;99.90
11538;DHT22;50159;49.426;11.182;2023-06-10T02:15:01;12.50;99.90
11538;DHT22;50159;49.426;11.182;2023-06-10T02:17:29;12.40;99.90
11538;DHT22;50159;49.426;11.182;2023-06-10T02:19:56;12.40;99.90
11538;DHT22;50159;49.426;11.182;2023-06-10T02:22:23;12.40;99.90
11538;DHT22;50159;49.426;11.182;2023-06-10T02:24:50;12.40;99.90
11538;DHT22;50159;49.426;11.182;2023-06-10T02:27:18;12.40;99.90
11538;DHT22;50159;49.426;11.182;2023-06-10T02:29:45;12.40;99.90
11538;DHT22;50159;49.426;11.182;2023-06-10T02:32:12;12.40;99.90
11538;DHT22;50159;49.426;11.182;2023-06-10T02:34:39;12.40;99.90
11538;DHT22;50159;49.426;11.182;2023-06-10T02:37:06;12.30;99.90
11538;DHT22;50159;49.426;11.182;2023-06-10T02:39:32;12.30;99.90
11538;DHT22;50159;49.426;11.182;2023-06-10T02:41:59;12.30;99.90
11538;DHT22;50159;49.426;11.182;2023-06-10T02:44:26;12.30;99.90
11538;DHT22;50159;49.426;11.182;2023-06-10T02:46:53;12.30;99.90
11538;DHT22;50159;49.426;11.182;2023-06-10T02:49:20;12.20;99.90
11538;DHT22;50159;49.426;11.182;2023-06-10T02:51:47;12.20;99.90
11538;DHT22;50159;49.426;11.182;2023-06-10T02:54:14;12.10;99.90
11538;DHT22;50159;49.426;11.182;2023-06-10T02:56:41;12.10;99.90
11538;DHT22;50159;49.426;11.182;2023-06-10T02:59:08;12.10;99.90
11538;DHT22;50159;49.426;11.182;2023-06-10T03:01:35;12.10;99.90
11538;DHT22;50159;49.426;11.182;2023-06-10T03:04:05;12.10;99.90
11538;DHT22;50159;49.426;11.182;2023-06-10T03:06:32;12.10;99.90
11538;DHT22;50159;49.426;11.182;2023-06-10T03:09:03;12.10;99.90
11538;DHT22;50159;49.426;11.182;2023-06-10T03:11:34;12.10;99.90
11538;DHT22;50159;49.426;11.182;2023-06-10T03:14:00;12.00;99.90
11538;DHT22;50159;49.426;11.182;2023-06-10T03:16:28;12.00;99.90
11538;DHT22;50159;49.426;11.182;2023-06-10T03:18:57;12.00;99.90
11538;DHT22;50159;49.426;11.182;2023-06-10T03:21:24;12.00;99.90
11538;DHT22;50159;49.426;11.182;2023-06-10T03:23:51;12.00;99.90
11538;DHT22;50159;49.426;11.182;2023-06-10T03:26:18;12.00;99.90
11538;DHT22;50159;49.426;11.182;2023-06-10T03:28:48;12.00;99.90
11538;DHT22;50159;49.426;11.182;2023-06-10T03:31:15;12.00;99.90
11538;DHT22;50159;49.426;11.182;2023-06-10T03:33:43;11.90;99.90
11538;DHT22;50159;49.426;11.182;2023-06-10T03:36:10;11.90;99.90
11538;DHT22;50159;49.426;11.182;2023-06-10T03:38:37;11.90;99.90
11538;DHT22;50159;49.426;11.182;2023-06-10T03:41:04;11.90;99.90
11538;DHT22;50159;49.426;11.182;2023-06-10T03:43:31;11.90;99.90
11538;DHT22;50159;49.426;11.182;2023-06-10T03:45:57;11.90;99.90
11538;DHT22;50159;49.426;11.182;2023-06-10T03:48:25;11.90;99.90
11538;DHT22;50159;49.426;11.182;2023-06-10T03:50:51;11.90;99.90
11538;DHT22;50159;49.426;11.182;2023-06-10T03:53:19;11.90;99.90
11538;DHT22;50159;49.426;11.182;2023-06-10T03:55:45;11.90;99.90
11538;DHT22;50159;49.426;11.182;2023-06-10T03:58:13;11.90;99.90
11538;DHT22;50159;49.426;11.182;2023-06-10T04:00:41;12.00;99.90
11538;DHT22;50159;49.426;11.182;2023-06-10T04:03:08;12.00;99.90
11538;DHT22;50159;49.426;11.182;2023-06-10T04:05:36;12.10;99.90
11538;DHT22;50159;49.426;11.182;2023-06-10T04:08:03;12.20;99.90
11538;DHT22;50159;49.426;11.182;2023-06-10T04:10:30;12.20;99.90
11538;DHT22;50159;49.426;11.182;2023-06-10T04:12:57;12.20;99.90
11538;DHT22;50159;49.426;11.182;2023-06-10T04:15:24;12.30;99.90
11538;DHT22;50159;49.426;11.182;2023-06-10T04:17:50;12.30;99.90
11538;DHT22;50159;49.426;11.182;2023-06-10T04:20:18;12.40;99.90
11538;DHT22;50159;49.426;11.182;2023-06-10T04:22:45;12.50;99.90
11538;DHT22;50159;49.426;11.182;2023-06-10T04:25:12;12.50;99.90
11538;DHT22;50159;49.426;11.182;2023-06-10T04:27:39;12.60;99.90
11538;DHT22;50159;49.426;11.182;2023-06-10T04:30:06;12.60;99.90
11538;DHT22;50159;49.426;11.182;2023-06-10T04:32:33;12.70;99.90
11538;DHT22;50159;49.426;11.182;2023-06-10T04:35:00;12.80;99.90
11538;DHT22;50159;49.426;11.182;2023-06-10T04:37:27;12.90;99.90
11538;DHT22;50159;49.426;11.182;2023-06-10T04:39:55;13.00;99.90
11538;DHT22;50159;49.426;11.182;2023-06-10T04:42:23;13.00;99.90
11538;DHT22;50159;49.426;11.182;2023-06-10T04:44:50;13.10;99.90
11538;DHT22;50159;49.426;11.182;2023-06-10T04:47:17;13.20;99.90
11538;DHT22;50159;49.426;11.182;2023-06-10T04:49:44;13.30;99.90
11538;DHT22;50159;49.426;11.182;2023-06-10T04:52:11;13.40;99.90
11538;DHT22;50159;49.426;11.182;2023-06-10T04:54:37;13.50;99.90
11538;DHT22;50159;49.426;11.182;2023-06-10T04:57:06;13.60;99.90
11538;DHT22;50159;49.426;11.182;2023-06-10T04:59:34;13.70;99.90
11538;DHT22;50159;49.426;11.182;2023-06-10T05:02:04;13.80;99.90
11538;DHT22;50159;49.426;11.182;2023-06-10T05:04:32;13.90;99.90
11538;DHT22;50159;49.426;11.182;2023-06-10T05:06:59;14.00;99.90
11538;DHT22;50159;49.426;11.182;2023-06-10T05:09:26;14.10;99.90
11538;DHT22;50159;49.426;11.182;2023-06-10T05:11:53;14.20;99.90
11538;DHT22;50159;49.426;11.182;2023-06-10T05:14:20;14.40;99.90
11538;DHT22;50159;49.426;11.182;2023-06-10T05:16:48;14.50;99.90
11538;DHT22;50159;49.426;11.182;2023-06-10T05:19:15;14.60;99.90
11538;DHT22;50159;49.426;11.182;2023-06-10T05:21:45;14.70;99.90
11538;DHT22;50159;49.426;11.182;2023-06-10T05:24:12;14.80;99.90
11538;DHT22;50159;49.426;11.182;2023-06-10T05:26:39;14.90;99.90
11538;DHT22;50159;49.426;11.182;2023-06-10T05:29:06;15.10;99.90
11538;DHT22;50159;49.426;11.182;2023-06-10T05:31:33;15.20;99.90
11538;DHT22;50159;49.426;11.182;2023-06-10T05:34:00;15.30;99.90
11538;DHT22;50159;49.426;11.182;2023-06-10T05:36:27;15.40;99.90
11538;DHT22;50159;49.426;11.182;2023-06-10T05:38:54;15.60;99.90
11538;DHT22;50159;49.426;11.182;2023-06-10T05:41:20;15.70;99.90
11538;DHT22;50159;49.426;11.182;2023-06-10T05:43:48;15.90;99.90
11538;DHT22;50159;49.426;11.182;2023-06-10T05:46:15;16.00;99.90
11538;DHT22;50159;49.426;11.182;2023-06-10T05:48:42;16.10;99.90
11538;DHT22;50159;49.426;11.182;2023-06-10T05:51:09;16.30;99.90
11538;DHT22;50159;49.426;11.182;2023-06-10T05:53:37;16.40;99.90
11538;DHT22;50159;49.426;11.182;2023-06-10T05:56:04;16.60;99.90
11538;DHT22;50159;49.426;11.182;2023-06-10T05:58:31;16.70;99.90
11538;DHT22;50159;49.426;11.182;2023-06-10T06:00:58;16.90;99.90
11538;DHT22;50159;49.426;11.182;2023-06-10T06:03:25;17.00;99.90
11538;DHT22;50159;49.426;11.182;2023-06-10T06:05:52;17.10;99.90
11538;DHT22;50159;49.426;11.182;2023-06-10T06:08:19;17.30;99.90
11538;DHT22;50159;49.426;11.182;2023-06-10T06:10:46;17.40;99.90
11538;DHT22;50159;49.426;11.182;2023-06-10T06:13:14;17.60;99.90
11538;DHT22;50159;49.426;11.182;2023-06-10T06:15:41;17.70;99.90
11538;DHT22;50159;49.426;11.182;2023-06-10T06:18:08;17.90;99.90
11538;DHT22;50159;49.426;11.182;2023-06-10T06:20:35;18.00;99.90
11538;DHT22;50159;49.426;11.182;2023-06-10T06:23:02;18.10;99.90
11538;DHT22;50159;49.426;11.182;2023-06-10T06:25:29;18.20;99.90
11538;DHT22;50159;49.426;11.182;2023-06-10T06:27:55;18.40;99.90
11538;DHT22;50159;49.426;11.182;2023-06-10T06:30:22;18.50;99.90
11538;DHT22;50159;49.426;11.182;2023-06-10T06:32:49;18.70;99.90
11538;DHT22;50159;49.426;11.182;2023-06-10T06:35:16;18.80;99.90
11538;DHT22;50159;49.426;11.182;2023-06-10T06:37:43;18.90;99.90
11538;DHT22;50159;49.426;11.182;2023-06-10T06:40:10;19.10;99.90
11538;DHT22;50159;49.426;11.182;2023-06-10T06:42:37;19.20;99.90
11538;DHT22;50159;49.426;11.182;2023-06-10T06:45:04;19.30;99.90
11538;DHT22;50159;49.426;11.182;2023-06-10T06:47:32;19.40;99.90
11538;DHT22;50159;49.426;11.182;2023-06-10T06:49:59;19.50;99.90
11538;DHT22;50159;49.426;11.182;2023-06-10T06:52:26;19.60;99.70
11538;DHT22;50159;49.426;11.182;2023-06-10T06:54:52;19.70;99.00
11538;DHT22;50159;49.426;11.182;2023-06-10T06:57:19;19.80;99.30
11538;DHT22;50159;49.426;11.182;2023-06-10T06:59:46;20.00;99.30
11538;DHT22;50159;49.426;11.182;2023-06-10T07:02:13;20.10;98.50
11538;DHT22;50159;49.426;11.182;2023-06-10T07:04:40;20.30;98.20
11538;DHT22;50159;49.426;11.182;2023-06-10T07:07:08;20.40;97.50
11538;DHT22;50159;49.426;11.182;2023-06-10T07:09:37;20.50;97.30
11538;DHT22;50159;49.426;11.182;2023-06-10T07:12:04;20.60;96.20
11538;DHT22;50159;49.426;11.182;2023-06-10T07:14:32;20.80;96.00
11538;DHT22;50159;49.426;11.182;2023-06-10T07:16:59;21.00;96.10
11538;DHT22;50159;49.426;11.182;2023-06-10T07:19:25;21.10;95.10
11538;DHT22;50159;49.426;11.182;2023-06-10T07:21:52;21.20;94.80
11538;DHT22;50159;49.426;11.182;2023-06-10T07:24:19;21.30;93.80
11538;DHT22;50159;49.426;11.182;2023-06-10T07:26:47;21.50;94.10
11538;DHT22;50159;49.426;11.182;2023-06-10T07:29:13;21.60;93.50
11538;DHT22;50159;49.426;11.182;2023-06-10T07:31:41;21.70;92.50
11538;DHT22;50159;49.426;11.182;2023-06-10T07:34:08;21.80;92.10
11538;DHT22;50159;49.426;11.182;2023-06-10T07:36:35;21.90;91.30
11538;DHT22;50159;49.426;11.182;2023-06-10T07:39:02;22.00;90.70
11538;DHT22;50159;49.426;11.182;2023-06-10T07:41:29;22.10;90.60
11538;DHT22;50159;49.426;11.182;2023-06-10T07:43:56;22.20;89.10
11538;DHT22;50159;49.426;11.182;2023-06-10T07:46:24;22.30;89.30
11538;DHT22;50159;49.426;11.182;2023-06-10T07:48:51;22.50;87.10
11538;DHT22;50159;49.426;11.182;2023-06-10T07:51:18;22.50;86.50
11538;DHT22;50159;49.426;11.182;2023-06-10T07:53:45;22.70;85.80
11538;DHT22;50159;49.426;11.182;2023-06-10T07:56:12;22.70;83.90
11538;DHT22;50159;49.426;11.182;2023-06-10T07:58:39;22.80;82.80
11538;DHT22;50159;49.426;11.182;2023-06-10T08:01:06;22.90;82.70
11538;DHT22;50159;49.426;11.182;2023-06-10T08:03:33;23.10;83.10
11538;DHT22;50159;49.426;11.182;2023-06-10T08:06:00;23.20;81.70
11538;DHT22;50159;49.426;11.182;2023-06-10T08:08:27;23.30;79.50
11538;DHT22;50159;49.426;11.182;2023-06-10T08:10:54;23.30;78.50
11538;DHT22;50159;49.426;11.182;2023-06-10T08:13:21;23.40;78.10
11538;DHT22;50159;49.426;11.182;2023-06-10T08:15:48;23.40;77.10
11538;DHT22;50159;49.426;11.182;2023-06-10T08:18:17;23.50;77.60
11538;DHT22;50159;49.426;11.182;2023-06-10T08:20:44;23.70;76.40
11538;DHT22;50159;49.426;11.182;2023-06-10T08:23:11;23.80;74.80
11538;DHT22;50159;49.426;11.182;2023-06-10T08:25:38;23.90;73.50
11538;DHT22;50159;49.426;11.182;2023-06-10T08:28:04;24.00;72.10
11538;DHT22;50159;49.426;11.182;2023-06-10T08:30:31;24.10;71.70
11538;DHT22;50159;49.426;11.182;2023-06-10T08:32:59;24.20;71.10
11538;DHT22;50159;49.426;11.182;2023-06-10T08:35:26;24.30;71.20
11538;DHT22;50159;49.426;11.182;2023-06-10T08:37:53;24.40;70.90
11538;DHT22;50159;49.426;11.182;2023-06-10T08:40:20;24.50;68.60
11538;DHT22;50159;49.426;11.182;2023-06-10T08:43:08;24.50;67.70
11538;DHT22;50159;49.426;11.182;2023-06-10T08:45:43;24.60;66.00
11538;DHT22;50159;49.426;11.182;2023-06-10T08:48:14;24.70;65.60
11538;DHT22;50159;49.426;11.182;2023-06-10T08:50:44;24.80;66.50
11538;DHT22;50159;49.426;11.182;2023-06-10T08:53:16;24.90;64.90
11538;DHT22;50159;49.426;11.182;2023-06-10T08:55:49;25.00;65.40
11538;DHT22;50159;49.426;11.182;2023-06-10T08:58:18;25.20;65.20
11538;DHT22;50159;49.426;11.182;2023-06-10T09:00:47;25.30;62.80
11538;DHT22;50159;49.426;11.182;2023-06-10T09:03:14;25.40;62.30
11538;DHT22;50159;49.426;11.182;2023-06-10T09:05:41;25.50;61.70
11538;DHT22;50159;49.426;11.182;2023-06-10T09:08:10;25.50;61.30
11538;DHT22;50159;49.426;11.182;2023-06-10T09:10:37;25.50;59.60
11538;DHT22;50159;49.426;11.182;2023-06-10T09:13:05;25.60;60.00
11538;DHT22;50159;49.426;11.182;2023-06-10T09:15:32;25.50;59.50
11538;DHT22;50159;49.426;11.182;2023-06-10T09:17:59;25.60;59.60
11538;DHT22;50159;49.426;11.182;2023-06-10T09:20:26;25.50;58.90
11538;DHT22;50159;49.426;11.182;2023-06-10T09:22:53;25.40;58.70
11538;DHT22;50159;49.426;11.182;2023-06-10T09:25:34;25.30;60.20
11538;DHT22;50159;49.426;11.182;2023-06-10T09:28:04;25.40;60.80
11538;DHT22;50159;49.426;11.182;2023-06-10T09:30:33;25.60;59.70
11538;DHT22;50159;49.426;11.182;2023-06-10T09:33:02;25.70;59.00
11538;DHT22;50159;49.426;11.182;2023-06-10T09:35:47;25.90;59.50
11538;DHT22;50159;49.426;11.182;2023-06-10T09:38:30;26.20;58.50
11538;DHT22;50159;49.426;11.182;2023-06-10T09:40:58;26.40;57.60
11538;DHT22;50159;49.426;11.182;2023-06-10T09:43:44;26.40;57.10
11538;DHT22;50159;49.426;11.182;2023-06-10T09:46:17;26.10;56.00
11538;DHT22;50159;49.426;11.182;2023-06-10T09:48:46;26.10;56.60
11538;DHT22;50159;49.426;11.182;2023-06-10T09:51:14;26.10;56.30
11538;DHT22;50159;49.426;11.182;2023-06-10T09:53:48;26.10;56.10
11538;DHT22;50159;49.426;11.182;2023-06-10T09:56:18;26.10;56.40
11538;DHT22;50159;49.426;11.182;2023-06-10T09:58:45;26.30;57.10
11538;DHT22;50159;49.426;11.182;2023-06-10T10:01:14;26.50;55.90
11538;DHT22;50159;49.426;11.182;2023-06-10T10:03:46;26.70;54.10
11538;DHT22;50159;49.426;11.182;2023-06-10T10:06:18;26.70;52.70
11538;DHT22;50159;49.426;11.182;2023-06-10T10:08:47;26.70;53.30
11538;DHT22;50159;49.426;11.182;2023-06-10T10:11:23;26.80;53.80
11538;DHT22;50159;49.426;11.182;2023-06-10T10:13:51;26.90;53.00
11538;DHT22;50159;49.426;11.182;2023-06-10T10:16:35;27.00;53.40
11538;DHT22;50159;49.426;11.182;2023-06-10T10:19:16;27.00;53.40
11538;DHT22;50159;49.426;11.182;2023-06-10T10:21:54;26.80;53.60
11538;DHT22;50159;49.426;11.182;2023-06-10T10:24:32;26.70;54.80
11538;DHT22;50159;49.426;11.182;2023-06-10T10:27:07;26.60;52.90
11538;DHT22;50159;49.426;11.182;2023-06-10T10:29:47;26.50;54.30
11538;DHT22;50159;49.426;11.182;2023-06-10T10:32:18;26.80;54.40
11538;DHT22;50159;49.426;11.182;2023-06-10T10:35:13;27.00;54.40
11538;DHT22;50159;49.426;11.182;2023-06-10T10:37:44;27.20;52.60
11538;DHT22;50159;49.426;11.182;2023-06-10T10:40:13;27.10;52.90
11538;DHT22;50159;49.426;11.182;2023-06-10T10:42:42;26.80;54.10
11538;DHT22;50159;49.426;11.182;2023-06-10T10:45:10;26.50;55.10
11538;DHT22;50159;49.426;11.182;2023-06-10T10:47:37;26.30;55.50
11538;DHT22;50159;49.426;11.182;2023-06-10T10:50:16;26.10;55.50
11538;DHT22;50159;49.426;11.182;2023-06-10T10:55:20;26.10;56.60
11538;DHT22;50159;49.426;11.182;2023-06-10T10:58:13;26.60;57.30
11538;DHT22;50159;49.426;11.182;2023-06-10T11:00:45;27.30;55.20
11538;DHT22;50159;49.426;11.182;2023-06-10T11:03:14;27.90;54.10
11538;DHT22;50159;49.426;11.182;2023-06-10T11:05:47;28.20;51.60
11538;DHT22;50159;49.426;11.182;2023-06-10T11:11:24;28.40;50.50
11538;DHT22;50159;49.426;11.182;2023-06-10T11:16:42;27.70;51.40
11538;DHT22;50159;49.426;11.182;2023-06-10T11:19:36;27.20;51.50
11538;DHT22;50159;49.426;11.182;2023-06-10T11:22:06;26.70;52.80
11538;DHT22;50159;49.426;11.182;2023-06-10T11:24:35;26.40;54.40
11538;DHT22;50159;49.426;11.182;2023-06-10T11:27:37;26.30;55.40
11538;DHT22;50159;49.426;11.182;2023-06-10T11:32:34;26.80;53.70
11538;DHT22;50159;49.426;11.182;2023-06-10T11:35:05;26.90;52.50
11538;DHT22;50159;49.426;11.182;2023-06-10T11:37:34;26.90;53.30
11538;DHT22;50159;49.426;11.182;2023-06-10T11:40:02;26.80;53.80
11538;DHT22;50159;49.426;11.182;2023-06-10T11:42:29;26.70;54.40
11538;DHT22;50159;49.426;11.182;2023-06-10T11:44:57;26.50;54.10
11538;DHT22;50159;49.426;11.182;2023-06-10T11:47:24;26.30;54.80
11538;DHT22;50159;49.426;11.182;2023-06-10T11:49:57;26.10;54.20
11538;DHT22;50159;49.426;11.182;2023-06-10T11:52:31;26.00;55.80
11538;DHT22;50159;49.426;11.182;2023-06-10T11:55:06;26.10;56.50
11538;DHT22;50159;49.426;11.182;2023-06-10T11:57:37;26.50;57.00
11538;DHT22;50159;49.426;11.182;2023-06-10T12:00:05;27.10;56.00
11538;DHT22;50159;49.426;11.182;2023-06-10T12:02:32;27.60;52.90
11538;DHT22;50159;49.426;11.182;2023-06-10T12:05:15;28.00;52.40
11538;DHT22;50159;49.426;11.182;2023-06-10T12:07:42;28.20;51.30
11538;DHT22;50159;49.426;11.182;2023-06-10T12:10:09;28.10;51.00
11538;DHT22;50159;49.426;11.182;2023-06-10T12:12:53;27.70;51.00
11538;DHT22;50159;49.426;11.182;2023-06-10T12:15:26;27.30;52.20
11538;DHT22;50159;49.426;11.182;2023-06-10T12:17:55;27.10;53.80
11538;DHT22;50159;49.426;11.182;2023-06-10T12:20:27;27.50;54.70
11538;DHT22;50159;49.426;11.182;2023-06-10T12:23:09;28.10;52.30
11538;DHT22;50159;49.426;11.182;2023-06-10T12:25:36;28.50;49.30
11538;DHT22;50159;49.426;11.182;2023-06-10T12:28:09;28.80;48.40
11538;DHT22;50159;49.426;11.182;2023-06-10T12:30:36;28.80;47.30
11538;DHT22;50159;49.426;11.182;2023-06-10T12:33:03;28.50;47.00
11538;DHT22;50159;49.426;11.182;2023-06-10T12:35:30;28.00;48.20
11538;DHT22;50159;49.426;11.182;2023-06-10T12:38:04;27.70;50.20
11538;DHT22;50159;49.426;11.182;2023-06-10T12:40:37;27.40;51.60
11538;DHT22;50159;49.426;11.182;2023-06-10T12:43:07;27.20;51.70
11538;DHT22;50159;49.426;11.182;2023-06-10T12:45:35;27.00;51.90
11538;DHT22;50159;49.426;11.182;2023-06-10T12:48:11;26.80;52.40
11538;DHT22;50159;49.426;11.182;2023-06-10T12:50:44;27.20;53.00
11538;DHT22;50159;49.426;11.182;2023-06-10T12:53:11;27.80;52.80
11538;DHT22;50159;49.426;11.182;2023-06-10T12:55:39;28.40;50.80
11538;DHT22;50159;49.426;11.182;2023-06-10T12:58:06;28.70;48.90
11538;DHT22;50159;49.426;11.182;2023-06-10T13:00:32;28.80;48.00
11538;DHT22;50159;49.426;11.182;2023-06-10T13:03:02;28.50;48.40
11538;DHT22;50159;49.426;11.182;2023-06-10T13:05:29;28.30;49.10
11538;DHT22;50159;49.426;11.182;2023-06-10T13:07:56;27.90;49.20
11538;DHT22;50159;49.426;11.182;2023-06-10T13:10:24;27.50;49.50
11538;DHT22;50159;49.426;11.182;2023-06-10T13:12:52;27.30;50.40
11538;DHT22;50159;49.426;11.182;2023-06-10T13:15:21;27.60;51.00
11538;DHT22;50159;49.426;11.182;2023-06-10T13:17:48;28.10;48.80
11538;DHT22;50159;49.426;11.182;2023-06-10T13:20:17;28.70;48.00
11538;DHT22;50159;49.426;11.182;2023-06-10T13:22:45;29.30;47.90
11538;DHT22;50159;49.426;11.182;2023-06-10T13:25:12;29.80;45.90
11538;DHT22;50159;49.426;11.182;2023-06-10T13:27:40;29.80;44.80
11538;DHT22;50159;49.426;11.182;2023-06-10T13:30:09;29.70;44.90
11538;DHT22;50159;49.426;11.182;2023-06-10T13:32:37;29.90;44.50
11538;DHT22;50159;49.426;11.182;2023-06-10T13:35:05;29.60;44.60
11538;DHT22;50159;49.426;11.182;2023-06-10T13:37:33;29.10;45.40
11538;DHT22;50159;49.426;11.182;2023-06-10T13:40:01;28.60;45.90
11538;DHT22;50159;49.426;11.182;2023-06-10T13:42:28;28.10;47.20
11538;DHT22;50159;49.426;11.182;2023-06-10T13:44:56;28.00;47.10
11538;DHT22;50159;49.426;11.182;2023-06-10T13:47:25;28.30;46.80
11538;DHT22;50159;49.426;11.182;2023-06-10T13:49:53;28.70;45.80
11538;DHT22;50159;49.426;11.182;2023-06-10T13:52:20;29.10;44.50
11538;DHT22;50159;49.426;11.182;2023-06-10T13:54:47;29.20;43.60
11538;DHT22;50159;49.426;11.182;2023-06-10T13:57:13;29.30;44.00
11538;DHT22;50159;49.426;11.182;2023-06-10T13:59:40;29.50;43.40
11538;DHT22;50159;49.426;11.182;2023-06-10T14:02:07;29.30;43.20
11538;DHT22;50159;49.426;11.182;2023-06-10T14:04:35;28.90;44.10
11538;DHT22;50159;49.426;11.182;2023-06-10T14:07:02;28.30;44.50
11538;DHT22;50159;49.426;11.182;2023-06-10T14:09:28;27.90;45.50
11538;DHT22;50159;49.426;11.182;2023-06-10T14:11:55;27.40;46.40
11538;DHT22;50159;49.426;11.182;2023-06-10T14:14:22;27.00;47.00
11538;DHT22;50159;49.426;11.182;2023-06-10T14:16:49;26.80;47.90
11538;DHT22;50159;49.426;11.182;2023-06-10T14:19:16;27.10;49.30
11538;DHT22;50159;49.426;11.182;2023-06-10T14:21:43;27.50;48.40
11538;DHT22;50159;49.426;11.182;2023-06-10T14:24:10;27.60;47.00
11538;DHT22;50159;49.426;11.182;2023-06-10T14:26:36;27.60;46.20
11538;DHT22;50159;49.426;11.182;2023-06-10T14:29:03;27.70;46.00
11538;DHT22;50159;49.426;11.182;2023-06-10T14:31:30;29.00;45.70
11538;DHT22;50159;49.426;11.182;2023-06-10T14:33:57;31.00;42.40
11538;DHT22;50159;49.426;11.182;2023-06-10T14:36:25;32.90;39.00
11538;DHT22;50159;49.426;11.182;2023-06-10T14:38:52;33.60;37.00
11538;DHT22;50159;49.426;11.182;2023-06-10T14:41:20;33.80;36.40
11538;DHT22;50159;49.426;11.182;2023-06-10T14:43:48;33.50;36.30
11538;DHT22;50159;49.426;11.182;2023-06-10T15:00:59;34.30;35.90
11538;DHT22;50159;49.426;11.182;2023-06-10T15:03:26;40.30;27.50
11538;DHT22;50159;49.426;11.182;2023-06-10T15:05:53;39.70;26.80
11538;DHT22;50159;49.426;11.182;2023-06-10T15:08:20;37.90;28.70
11538;DHT22;50159;49.426;11.182;2023-06-10T15:10:47;35.90;30.70
11538;DHT22;50159;49.426;11.182;2023-06-10T15:13:15;33.90;33.50
11538;DHT22;50159;49.426;11.182;2023-06-10T15:15:41;32.40;36.10
11538;DHT22;50159;49.426;11.182;2023-06-10T15:18:08;32.10;38.60
11538;DHT22;50159;49.426;11.182;2023-06-10T15:20:35;32.80;38.20
11538;DHT22;50159;49.426;11.182;2023-06-10T15:23:02;32.80;38.70
11538;DHT22;50159;49.426;11.182;2023-06-10T15:25:29;32.00;39.50
11538;DHT22;50159;49.426;11.182;2023-06-10T15:27:57;31.00;41.20
11538;DHT22;50159;49.426;11.182;2023-06-10T15:30:25;30.10;43.30
11538;DHT22;50159;49.426;11.182;2023-06-10T15:32:52;30.20;44.60
11538;DHT22;50159;49.426;11.182;2023-06-10T15:35:19;31.20;42.80
11538;DHT22;50159;49.426;11.182;2023-06-10T15:37:46;32.30;40.90
11538;DHT22;50159;49.426;11.182;2023-06-10T15:40:13;32.90;40.10
11538;DHT22;50159;49.426;11.182;2023-06-10T15:42:40;33.10;38.20
11538;DHT22;50159;49.426;11.182;2023-06-10T15:45:07;32.80;37.90
11538;DHT22;50159;49.426;11.182;2023-06-10T15:47:35;31.90;39.00
11538;DHT22;50159;49.426;11.182;2023-06-10T15:50:02;30.80;41.00
11538;DHT22;50159;49.426;11.182;2023-06-10T15:52:29;29.90;43.30
11538;DHT22;50159;49.426;11.182;2023-06-10T15:54:56;29.90;44.20